createdAt,value
2022-12-15T00:01:47.486Z,4.60
2022-12-15T00:04:55.232Z,4.22
2022-12-15T00:08:02.716Z,4.35
2022-12-15T00:11:10.243Z,4.63
2022-12-15T00:14:17.927Z,4.00
2022-12-15T00:17:25.722Z,4.43
2022-12-15T00:20:33.463Z,4.40
2022-12-15T00:23:41.265Z,4.60
2022-12-15T00:26:48.923Z,4.35
2022-12-15T00:29:56.314Z,4.35
2022-12-15T00:33:04.232Z,4.30
2022-12-15T00:36:12.020Z,4.30
2022-12-15T00:39:03.898Z,4.45
2022-12-15T00:41:53.863Z,4.93
2022-12-15T00:44:43.209Z,4.57
2022-12-15T00:47:34.276Z,4.38
2022-12-15T00:50:42.527Z,4.53
2022-12-15T00:53:49.968Z,4.35
2022-12-15T00:56:57.373Z,4.50
2022-12-15T01:00:05.022Z,4.05
2022-12-15T01:03:12.713Z,4.43
2022-12-15T01:06:23.967Z,4.65
2022-12-15T01:09:33.023Z,4.47
2022-12-15T01:12:40.609Z,4.55
2022-12-15T01:15:48.726Z,4.30
2022-12-15T01:18:56.877Z,4.50
2022-12-15T01:21:46.154Z,4.40
2022-12-15T01:24:36.199Z,3.97
2022-12-15T01:27:25.417Z,4.35
2022-12-15T01:30:17.921Z,4.32
2022-12-15T01:33:07.119Z,4.47
2022-12-15T01:36:01.763Z,3.92
2022-12-15T01:38:54.264Z,4.38
2022-12-15T01:41:44.038Z,3.88
2022-12-15T01:44:33.283Z,3.97
2022-12-15T01:47:26.358Z,3.88
2022-12-15T01:50:17.533Z,4.13
2022-12-15T01:53:07.120Z,4.00
2022-12-15T01:55:56.424Z,4.03
2022-12-15T01:58:50.519Z,4.10
2022-12-15T02:01:40.034Z,4.00
2022-12-15T02:04:33.307Z,4.10
2022-12-15T02:07:22.557Z,4.15
2022-12-15T02:10:12.928Z,4.10
2022-12-15T02:13:12.716Z,4.30
2022-12-15T02:16:12.013Z,4.28
2022-12-15T02:19:11.589Z,4.00
2022-12-15T02:22:25.393Z,3.83
2022-12-15T02:25:35.973Z,4.10
2022-12-15T02:28:54.108Z,4.10
2022-12-15T02:31:50.768Z,3.90
2022-12-15T02:34:53.987Z,4.10
2022-12-15T02:37:43.358Z,4.10
2022-12-15T02:40:33.046Z,3.60
2022-12-15T02:43:22.315Z,3.50
2022-12-15T02:46:39.584Z,4.25
2022-12-15T02:49:41.092Z,3.55
2022-12-15T02:52:33.114Z,4.07
2022-12-15T02:55:37.902Z,4.07
2022-12-15T02:58:42.854Z,3.88
2022-12-15T03:01:34.832Z,3.70
2022-12-15T03:04:25.043Z,3.78
2022-12-15T03:07:15.771Z,4.25
2022-12-15T03:10:07.337Z,4.05
2022-12-15T03:12:57.204Z,3.60
2022-12-15T03:15:47.072Z,4.10
2022-12-15T03:18:36.321Z,3.80
2022-12-15T03:21:25.574Z,4.03
2022-12-15T03:24:15.125Z,4.05
2022-12-15T03:27:05.539Z,4.20
2022-12-15T03:29:54.791Z,3.58
2022-12-15T03:32:44.253Z,4.00
2022-12-15T03:35:36.130Z,4.40
2022-12-15T03:38:26.725Z,4.28
2022-12-15T03:41:15.975Z,4.35
2022-12-15T03:44:09.529Z,4.30
2022-12-15T03:47:03.489Z,4.13
2022-12-15T03:49:52.859Z,4.20
2022-12-15T03:52:43.628Z,4.35
2022-12-15T03:55:33.576Z,4.60
2022-12-15T03:58:22.975Z,4.50
2022-12-15T04:01:31.072Z,4.47
2022-12-15T04:04:20.498Z,4.47
2022-12-15T04:07:10.435Z,4.25
2022-12-15T04:09:59.626Z,4.32
2022-12-15T04:12:48.890Z,4.25
2022-12-15T04:15:40.096Z,4.82
2022-12-15T04:18:29.288Z,4.82
2022-12-15T04:21:18.858Z,4.55
2022-12-15T04:24:26.421Z,4.43
2022-12-15T04:27:33.949Z,4.93
2022-12-15T04:30:41.895Z,6.10
2022-12-15T04:33:50.117Z,4.55
2022-12-15T04:36:59.876Z,4.43
2022-12-15T04:40:11.623Z,3.90
2022-12-15T04:43:19.170Z,4.13
2022-12-15T04:46:26.682Z,6.22
2022-12-15T04:49:34.571Z,7.32
2022-12-15T04:52:42.386Z,4.63
2022-12-15T04:55:55.502Z,5.05
2022-12-15T04:59:03.304Z,5.20
2022-12-15T05:02:11.556Z,5.47
2022-12-15T05:05:19.146Z,6.75
2022-12-15T05:08:26.904Z,5.30
2022-12-15T05:11:34.834Z,7.25
2022-12-15T05:14:42.578Z,6.78
2022-12-15T05:17:49.966Z,6.05
2022-12-15T05:20:57.654Z,8.15
2022-12-15T05:24:05.319Z,7.72
2022-12-15T05:27:13.119Z,5.13
2022-12-15T05:30:20.759Z,7.32
2022-12-15T05:33:10.630Z,6.45
2022-12-15T05:35:59.835Z,6.68
2022-12-15T05:38:55.307Z,5.38
2022-12-15T05:41:45.298Z,6.55
2022-12-15T05:44:34.556Z,6.03
2022-12-15T05:47:23.785Z,6.82
2022-12-15T05:50:13.109Z,6.30
2022-12-15T05:53:02.867Z,7.38
2022-12-15T05:55:52.133Z,6.32
2022-12-15T05:58:45.354Z,6.47
2022-12-15T06:04:25.735Z,6.47
2022-12-15T06:07:15.315Z,5.53
2022-12-15T06:10:05.669Z,7.97
2022-12-15T06:12:55.314Z,7.68
2022-12-15T06:15:44.855Z,6.57
2022-12-15T06:18:37.796Z,7.35
2022-12-15T06:21:37.419Z,7.13
2022-12-15T06:24:27.127Z,7.22
2022-12-15T06:27:16.283Z,8.15
2022-12-15T06:30:06.195Z,6.65
2022-12-15T06:32:55.820Z,6.70
2022-12-15T06:35:45.103Z,7.75
2022-12-15T06:38:34.936Z,6.30
2022-12-15T06:41:24.242Z,7.93
2022-12-15T06:44:16.232Z,5.97
2022-12-15T06:47:05.554Z,7.82
2022-12-15T06:49:54.756Z,8.88
2022-12-15T06:52:43.941Z,8.75
2022-12-15T06:55:33.153Z,8.77
2022-12-15T06:58:22.724Z,9.65
2022-12-15T07:01:12.984Z,12.10
2022-12-15T07:04:03.745Z,10.07
2022-12-15T07:06:53.008Z,9.05
2022-12-15T07:09:42.228Z,9.05
2022-12-15T07:12:31.442Z,8.25
2022-12-15T07:15:20.629Z,9.35
2022-12-15T07:18:13.126Z,7.90
2022-12-15T07:21:07.532Z,9.57
2022-12-15T07:23:57.468Z,8.38
2022-12-15T07:26:48.867Z,8.52
2022-12-15T07:29:38.277Z,7.63
2022-12-15T07:32:27.490Z,9.70
2022-12-15T07:35:16.734Z,9.32
2022-12-15T07:38:09.860Z,8.93
2022-12-15T07:41:03.675Z,12.02
2022-12-15T07:43:52.985Z,8.80
2022-12-15T07:46:42.332Z,8.82
2022-12-15T07:49:31.663Z,11.07
2022-12-15T07:52:20.934Z,8.25
2022-12-15T07:55:10.380Z,10.00
2022-12-15T07:57:59.638Z,8.90
2022-12-15T08:00:49.194Z,10.15
2022-12-15T08:03:39.794Z,9.02
2022-12-15T08:06:29.432Z,9.43
2022-12-15T08:09:18.551Z,11.00
2022-12-15T08:12:07.980Z,7.20
2022-12-15T08:14:57.165Z,9.65
2022-12-15T08:17:47.640Z,11.25
2022-12-15T08:20:38.050Z,9.05
2022-12-15T08:23:27.426Z,7.80
2022-12-15T08:26:21.474Z,11.48
2022-12-15T08:29:49.681Z,9.18
2022-12-15T08:32:25.517Z,7.57
2022-12-15T08:35:38.879Z,8.70
2022-12-15T08:38:24.519Z,8.65
2022-12-15T08:41:24.147Z,7.68
2022-12-15T08:44:13.395Z,8.95
2022-12-15T08:47:02.558Z,7.65
2022-12-15T08:49:52.563Z,8.63
2022-12-15T08:53:00.752Z,10.73
2022-12-15T08:55:52.538Z,7.93
2022-12-15T08:58:42.085Z,8.80
2022-12-15T09:01:33.493Z,8.93
2022-12-15T09:04:23.194Z,10.48
2022-12-15T09:07:13.237Z,8.32
2022-12-15T09:10:02.515Z,11.35
2022-12-15T09:12:52.349Z,10.10
2022-12-15T09:16:08.407Z,8.45
2022-12-15T09:18:56.441Z,7.50
2022-12-15T09:21:46.009Z,9.35
2022-12-15T09:24:35.613Z,7.50
2022-12-15T09:27:24.928Z,9.35
2022-12-15T09:30:14.456Z,8.35
2022-12-15T09:33:06.532Z,10.13
2022-12-15T09:35:55.764Z,8.70
2022-12-15T09:38:45.759Z,8.23
2022-12-15T09:41:37.324Z,9.13
2022-12-15T09:44:28.377Z,9.02
2022-12-15T09:47:29.404Z,8.98
2022-12-15T09:50:25.611Z,8.80
2022-12-15T09:53:52.930Z,7.97
2022-12-15T09:57:06.320Z,8.73
2022-12-15T10:00:22.113Z,7.60
2022-12-15T10:03:48.357Z,8.15
2022-12-15T10:06:50.631Z,6.93
2022-12-15T10:09:40.848Z,8.18
2022-12-15T10:12:43.620Z,6.75
2022-12-15T10:16:18.081Z,7.18
2022-12-15T10:19:15.605Z,10.05
2022-12-15T10:22:05.145Z,6.53
2022-12-15T10:25:09.793Z,9.10
2022-12-15T10:28:17.319Z,8.93
2022-12-15T10:31:19.663Z,7.88
2022-12-15T10:34:35.470Z,6.82
2022-12-15T10:37:25.377Z,8.38
2022-12-15T10:40:22.350Z,7.68
2022-12-15T10:43:24.181Z,7.07
2022-12-15T10:46:19.875Z,7.13
2022-12-15T10:49:09.051Z,9.60
2022-12-15T10:52:01.200Z,7.32
2022-12-15T10:54:52.866Z,8.63
2022-12-15T10:58:03.070Z,11.02
2022-12-15T11:01:16.845Z,6.80
2022-12-15T11:04:07.503Z,7.82
2022-12-15T11:07:03.905Z,6.95
2022-12-15T11:10:01.310Z,7.75
2022-12-15T11:13:02.397Z,8.75
2022-12-15T11:15:55.152Z,7.78
2022-12-15T11:18:50.511Z,8.45
2022-12-15T11:21:50.053Z,8.35
2022-12-15T11:24:46.582Z,6.72
2022-12-15T11:27:44.305Z,6.25
2022-12-15T11:30:43.979Z,7.63
2022-12-15T11:33:33.725Z,6.40
2022-12-15T11:36:48.450Z,6.78
2022-12-15T11:39:49.740Z,6.50
2022-12-15T11:42:54.329Z,6.18
2022-12-15T11:46:03.020Z,8.25
2022-12-15T11:49:03.893Z,7.03
2022-12-15T11:52:12.783Z,6.40
2022-12-15T11:55:35.897Z,6.38
2022-12-15T11:58:41.075Z,8.23
2022-12-15T12:01:58.968Z,6.82
2022-12-15T12:05:19.547Z,6.53
2022-12-15T12:08:17.522Z,7.07
2022-12-15T12:11:26.713Z,6.45
2022-12-15T12:14:40.519Z,8.20
2022-12-15T12:17:47.574Z,6.20
2022-12-15T12:20:51.076Z,6.95
2022-12-15T12:23:47.256Z,7.50
2022-12-15T12:26:45.918Z,6.72
2022-12-15T12:29:37.676Z,6.55
2022-12-15T12:32:41.074Z,6.88
2022-12-15T12:35:46.036Z,7.93
2022-12-15T12:38:50.915Z,6.28
2022-12-15T12:41:49.397Z,6.65
2022-12-15T12:44:40.171Z,6.25
2022-12-15T12:47:41.209Z,8.20
2022-12-15T12:50:31.367Z,6.00
2022-12-15T12:53:35.499Z,7.97
2022-12-15T12:56:41.577Z,8.05
2022-12-15T12:59:30.818Z,6.15
2022-12-15T13:02:25.619Z,5.82
2022-12-15T13:05:32.294Z,8.07
2022-12-15T13:08:51.701Z,6.60
2022-12-15T13:11:49.835Z,7.40
2022-12-15T13:14:51.692Z,6.30
2022-12-15T13:17:45.488Z,6.13
2022-12-15T13:20:39.392Z,6.60
2022-12-15T13:23:28.648Z,7.35
2022-12-15T13:26:20.421Z,6.25
2022-12-15T13:29:10.958Z,6.32
2022-12-15T13:32:00.631Z,5.82
2022-12-15T13:34:49.954Z,6.43
2022-12-15T13:37:49.208Z,6.20
2022-12-15T13:40:39.005Z,8.30
2022-12-15T13:43:28.231Z,6.75
2022-12-15T13:46:21.811Z,5.57
2022-12-15T13:49:16.308Z,6.15
2022-12-15T13:56:07.878Z,5.82
2022-12-15T13:59:12.980Z,6.35
2022-12-15T14:02:02.172Z,6.07
2022-12-15T14:05:16.129Z,5.45
2022-12-15T14:08:11.950Z,6.82
2022-12-15T14:11:22.339Z,6.18
2022-12-15T14:14:21.930Z,5.97
2022-12-15T14:17:16.722Z,7.03
2022-12-15T14:20:20.372Z,5.38
2022-12-15T14:23:41.516Z,6.22
2022-12-15T14:26:32.737Z,5.72
2022-12-15T14:29:22.856Z,6.53
2022-12-15T14:32:12.191Z,7.28
2022-12-15T14:35:01.520Z,6.88
2022-12-15T14:37:51.343Z,5.63
2022-12-15T14:40:42.329Z,6.88
2022-12-15T14:43:39.157Z,6.28
2022-12-15T14:46:40.030Z,8.35
2022-12-15T14:49:33.600Z,5.70
2022-12-15T14:52:30.734Z,5.45
2022-12-15T14:55:28.001Z,5.55
2022-12-15T14:58:37.359Z,6.10
2022-12-15T15:01:36.967Z,6.18
2022-12-15T15:04:39.340Z,5.82
2022-12-15T15:07:31.256Z,5.60
2022-12-15T15:10:29.307Z,5.93
2022-12-15T15:13:26.122Z,6.13
2022-12-15T15:16:19.063Z,6.05
2022-12-15T15:19:08.529Z,5.78
2022-12-15T15:22:01.951Z,6.15
2022-12-15T15:24:53.630Z,6.65
2022-12-15T15:27:42.824Z,8.85
2022-12-15T15:30:48.372Z,6.43
2022-12-15T15:33:39.781Z,5.68
2022-12-15T15:36:38.461Z,6.03
2022-12-15T15:39:27.966Z,5.30
2022-12-15T15:42:17.345Z,5.30
2022-12-15T15:45:13.604Z,5.40
2022-12-15T15:48:02.762Z,5.05
2022-12-15T15:50:52.229Z,5.60
2022-12-15T15:53:41.540Z,6.07
2022-12-15T15:56:31.889Z,5.32
2022-12-15T15:59:22.164Z,5.15
2022-12-15T16:02:14.366Z,5.72
2022-12-15T16:05:03.852Z,5.38
2022-12-15T16:07:53.110Z,6.53
2022-12-15T16:10:46.265Z,5.38
2022-12-15T16:13:35.648Z,5.68
2022-12-15T16:16:28.605Z,4.88
2022-12-15T16:19:18.027Z,4.97
2022-12-15T16:22:07.590Z,6.05
2022-12-15T16:24:57.431Z,5.20
2022-12-15T16:27:46.800Z,5.38
2022-12-15T16:30:37.616Z,5.22
2022-12-15T16:33:27.153Z,5.32
2022-12-15T16:36:16.512Z,6.85
2022-12-15T16:39:05.833Z,5.47
2022-12-15T16:41:56.533Z,6.05
2022-12-15T16:44:45.685Z,6.72
2022-12-15T16:47:34.849Z,5.97
2022-12-15T16:50:32.745Z,4.95
2022-12-15T16:53:25.923Z,5.38
2022-12-15T16:56:18.168Z,5.10
2022-12-15T16:59:32.017Z,6.68
2022-12-15T17:02:30.009Z,6.43
2022-12-15T17:05:20.180Z,5.88
2022-12-15T17:08:19.191Z,5.68
2022-12-15T17:11:13.611Z,5.25
2022-12-15T17:14:02.978Z,5.38
2022-12-15T17:16:52.213Z,5.53
2022-12-15T17:19:52.642Z,4.90
2022-12-15T17:22:54.463Z,5.20
2022-12-15T17:26:21.117Z,7.55
2022-12-15T17:29:08.492Z,7.05
2022-12-15T17:31:58.573Z,5.38
2022-12-15T17:34:47.948Z,4.90
2022-12-15T17:37:37.196Z,5.60
2022-12-15T17:40:27.934Z,6.03
2022-12-15T17:43:19.861Z,4.68
2022-12-15T17:46:09.345Z,5.05
2022-12-15T17:48:59.127Z,5.45
2022-12-15T17:51:50.660Z,5.00
2022-12-15T17:54:39.820Z,5.10
2022-12-15T17:57:32.648Z,4.68
2022-12-15T18:03:24.756Z,7.47
2022-12-15T18:06:16.369Z,5.20
2022-12-15T18:09:07.663Z,5.45
2022-12-15T18:11:56.947Z,5.38
2022-12-15T18:14:48.939Z,5.68
2022-12-15T18:17:38.460Z,6.07
2022-12-15T18:20:27.677Z,5.10
2022-12-15T18:23:19.949Z,4.95
2022-12-15T18:26:10.713Z,5.13
2022-12-15T18:28:59.844Z,5.88
2022-12-15T18:31:50.582Z,4.70
2022-12-15T18:34:41.367Z,5.82
2022-12-15T18:37:30.835Z,6.32
2022-12-15T18:40:23.576Z,5.18
2022-12-15T18:43:18.774Z,4.80
2022-12-15T18:46:16.153Z,4.93
2022-12-15T18:49:12.400Z,5.03
2022-12-15T18:52:01.579Z,4.50
2022-12-15T18:54:52.647Z,6.13
2022-12-15T18:57:42.020Z,5.03
2022-12-15T19:00:35.344Z,5.97
2022-12-15T19:03:25.686Z,5.18
2022-12-15T19:06:35.913Z,5.18
2022-12-15T19:09:25.130Z,4.70
2022-12-15T19:12:21.294Z,5.28
2022-12-15T19:15:21.134Z,5.75
2022-12-15T19:18:36.832Z,4.78
2022-12-15T19:21:49.110Z,5.20
2022-12-15T19:24:56.700Z,4.68
2022-12-15T19:27:45.823Z,5.32
2022-12-15T19:30:41.634Z,5.15
2022-12-15T19:33:33.009Z,5.28
2022-12-15T19:36:25.456Z,4.60
2022-12-15T19:39:23.206Z,4.90
2022-12-15T19:42:21.088Z,5.35
2022-12-15T19:45:19.083Z,4.72
2022-12-15T19:48:08.301Z,4.47
2022-12-15T19:50:57.591Z,4.82
2022-12-15T19:53:48.547Z,5.03
2022-12-15T19:56:37.749Z,4.80
2022-12-15T19:59:29.180Z,4.63
2022-12-15T20:02:20.645Z,4.93
2022-12-15T20:05:10.214Z,5.18
2022-12-15T20:07:59.436Z,5.13
2022-12-15T20:10:49.239Z,5.05
2022-12-15T20:13:38.479Z,5.35
2022-12-15T20:16:27.861Z,4.43
2022-12-15T20:19:18.864Z,4.45
2022-12-15T20:22:16.514Z,4.90
2022-12-15T20:25:06.569Z,4.78
2022-12-15T20:27:56.216Z,4.88
2022-12-15T20:30:45.837Z,4.45
2022-12-15T20:33:35.284Z,5.07
2022-12-15T20:36:30.820Z,4.95
2022-12-15T20:39:33.021Z,4.63
2022-12-15T20:42:23.362Z,6.63
2022-12-15T20:45:19.307Z,4.68
2022-12-15T20:48:14.513Z,4.82
2022-12-15T20:51:08.831Z,4.85
2022-12-15T20:54:00.729Z,5.38
2022-12-15T20:56:50.929Z,4.97
2022-12-15T20:59:40.186Z,4.90
2022-12-15T21:02:31.155Z,4.38
2022-12-15T21:05:24.430Z,5.50
2022-12-15T21:08:31.120Z,4.82
2022-12-15T21:11:25.449Z,4.50
2022-12-15T21:14:20.839Z,5.00
2022-12-15T21:17:18.574Z,4.55
2022-12-15T21:20:09.317Z,5.07
2022-12-15T21:22:59.305Z,4.90
2022-12-15T21:25:49.010Z,4.90
2022-12-15T21:28:38.128Z,5.13
2022-12-15T21:31:27.991Z,5.07
2022-12-15T21:34:17.296Z,4.75
2022-12-15T21:37:24.993Z,4.97
2022-12-15T21:40:21.880Z,5.82
2022-12-15T21:43:12.736Z,5.00
2022-12-15T21:46:03.324Z,4.82
2022-12-15T21:49:10.876Z,4.68
2022-12-15T21:52:02.117Z,5.22
2022-12-15T21:54:51.414Z,4.82
2022-12-15T21:57:40.522Z,5.15
2022-12-15T22:00:34.867Z,4.80
2022-12-15T22:03:24.220Z,4.57
2022-12-15T22:06:22.127Z,5.43
2022-12-15T22:09:12.640Z,5.05
2022-12-15T22:12:02.358Z,4.90
2022-12-15T22:14:52.961Z,4.95
2022-12-15T22:17:42.408Z,5.07
2022-12-15T22:20:31.618Z,5.85
2022-12-15T22:23:22.068Z,5.13
2022-12-15T22:26:24.356Z,4.82
2022-12-15T22:29:22.800Z,5.20
2022-12-15T22:32:16.928Z,4.70
2022-12-15T22:35:17.377Z,4.90
2022-12-15T22:38:07.631Z,4.75
2022-12-15T22:41:00.458Z,5.22
2022-12-15T22:43:53.276Z,5.28
2022-12-15T22:46:44.284Z,5.18
2022-12-15T22:49:38.418Z,5.22
2022-12-15T22:52:27.725Z,5.38
2022-12-15T22:55:20.047Z,4.90
2022-12-15T22:58:13.578Z,5.10
2022-12-15T23:03:53.690Z,4.90
2022-12-15T23:06:46.278Z,4.30
2022-12-15T23:09:35.520Z,5.18
2022-12-15T23:12:24.747Z,4.70
2022-12-15T23:15:32.884Z,4.97
2022-12-15T23:18:22.166Z,4.88
2022-12-15T23:21:11.360Z,5.10
2022-12-15T23:24:01.444Z,4.90
2022-12-15T23:26:50.629Z,5.22
2022-12-15T23:29:39.925Z,5.35
2022-12-15T23:32:29.606Z,4.88
2022-12-15T23:35:19.191Z,4.80
2022-12-15T23:38:08.388Z,4.70
2022-12-15T23:40:58.966Z,4.47
2022-12-15T23:43:48.444Z,4.85
2022-12-15T23:46:37.842Z,4.88
2022-12-15T23:49:27.044Z,5.22
2022-12-15T23:52:16.220Z,5.05
2022-12-15T23:55:05.899Z,4.93
2022-12-15T23:58:00.295Z,5.40
